createdAt,value
2022-08-04T00:00:09.329Z,21.80
2022-08-04T00:02:41.313Z,21.80
2022-08-04T00:05:11.188Z,21.80
2022-08-04T00:07:44.212Z,21.80
2022-08-04T00:10:13.621Z,21.70
2022-08-04T00:12:42.655Z,21.70
2022-08-04T00:15:10.931Z,21.70
2022-08-04T00:17:45.076Z,21.60
2022-08-04T00:20:15.101Z,21.60
2022-08-04T00:22:44.767Z,21.50
2022-08-04T00:25:11.784Z,21.50
2022-08-04T00:27:38.552Z,21.50
2022-08-04T00:30:06.363Z,21.40
2022-08-04T00:32:34.421Z,21.50
2022-08-04T00:35:01.793Z,21.50
2022-08-04T00:37:28.452Z,21.50
2022-08-04T00:39:56.322Z,21.50
2022-08-04T00:42:35.216Z,21.40
2022-08-04T00:45:30.769Z,21.40
2022-08-04T00:48:32.312Z,21.40
2022-08-04T00:51:17.841Z,21.40
2022-08-04T00:53:53.449Z,21.30
2022-08-04T00:56:44.280Z,21.30
2022-08-04T00:59:13.683Z,21.30
2022-08-04T01:01:52.883Z,21.40
2022-08-04T01:04:24.469Z,21.50
2022-08-04T01:07:10.312Z,21.50
2022-08-04T01:09:48.122Z,21.50
2022-08-04T01:12:17.554Z,21.50
2022-08-04T01:14:44.158Z,21.50
2022-08-04T01:17:19.463Z,21.60
2022-08-04T01:19:49.119Z,21.70
2022-08-04T01:22:38.924Z,21.70
2022-08-04T01:25:17.536Z,21.70
2022-08-04T01:28:14.898Z,21.80
2022-08-04T01:30:45.820Z,21.80
2022-08-04T01:33:17.079Z,21.70
2022-08-04T01:35:48.368Z,21.80
2022-08-04T01:38:35.122Z,21.70
2022-08-04T01:41:08.971Z,21.60
2022-08-04T01:43:40.228Z,21.50
2022-08-04T01:46:07.152Z,21.30
2022-08-04T01:48:34.599Z,21.10
2022-08-04T01:51:05.483Z,21.10
2022-08-04T01:53:33.314Z,21.00
2022-08-04T01:56:01.196Z,21.00
2022-08-04T01:58:29.493Z,20.90
2022-08-04T02:01:08.858Z,20.80
2022-08-04T02:04:19.517Z,20.80
2022-08-04T02:06:24.015Z,20.70
2022-08-04T02:08:56.858Z,20.60
2022-08-04T02:11:23.602Z,20.60
2022-08-04T02:14:40.935Z,20.50
2022-08-04T02:17:11.482Z,20.50
2022-08-04T02:19:56.806Z,20.40
2022-08-04T02:22:25.369Z,20.40
2022-08-04T02:24:57.657Z,20.40
2022-08-04T02:27:28.662Z,20.40
2022-08-04T02:30:15.609Z,20.40
2022-08-04T02:32:46.884Z,20.30
2022-08-04T02:35:15.213Z,20.20
2022-08-04T02:37:48.659Z,20.20
2022-08-04T02:40:20.108Z,20.20
2022-08-04T02:42:46.980Z,20.20
2022-08-04T02:45:14.500Z,20.10
2022-08-04T02:48:19.361Z,20.10
2022-08-04T02:50:30.664Z,20.00
2022-08-04T02:52:58.904Z,20.00
2022-08-04T02:55:26.756Z,19.90
2022-08-04T02:57:54.236Z,19.90
2022-08-04T03:00:21.080Z,19.90
2022-08-04T03:03:06.806Z,19.90
2022-08-04T03:05:57.751Z,19.80
2022-08-04T03:08:34.138Z,19.80
2022-08-04T03:11:13.086Z,19.70
2022-08-04T03:13:39.873Z,19.70
2022-08-04T03:16:09.372Z,19.60
2022-08-04T03:18:39.068Z,19.50
2022-08-04T03:21:24.587Z,19.50
2022-08-04T03:24:19.994Z,19.50
2022-08-04T03:27:02.283Z,19.40
2022-08-04T03:29:37.012Z,19.30
2022-08-04T03:32:04.092Z,19.20
2022-08-04T03:34:49.256Z,19.20
2022-08-04T03:37:19.101Z,19.10
2022-08-04T03:39:49.040Z,19.10
2022-08-04T03:42:27.860Z,19.00
2022-08-04T03:45:00.583Z,19.10
2022-08-04T03:47:42.250Z,19.10
2022-08-04T03:50:29.891Z,19.00
2022-08-04T03:53:09.353Z,18.90
2022-08-04T03:55:35.957Z,19.00
2022-08-04T03:58:14.454Z,18.90
2022-08-04T04:00:50.195Z,18.90
2022-08-04T04:03:43.274Z,18.90
2022-08-04T04:06:38.522Z,18.90
2022-08-04T04:09:30.794Z,19.00
2022-08-04T04:12:28.685Z,18.90
2022-08-04T04:14:55.422Z,18.80
2022-08-04T04:17:35.675Z,18.70
2022-08-04T04:20:08.739Z,18.70
2022-08-04T04:22:53.967Z,18.70
2022-08-04T04:25:42.141Z,18.80
2022-08-04T04:28:44.383Z,18.80
2022-08-04T04:31:34.458Z,18.70
2022-08-04T04:34:01.084Z,18.70
2022-08-04T04:36:46.759Z,18.60
2022-08-04T04:39:23.000Z,18.60
2022-08-04T04:42:08.618Z,18.70
2022-08-04T04:44:54.165Z,18.80
2022-08-04T04:48:08.461Z,18.80
2022-08-04T04:50:46.157Z,18.80
2022-08-04T04:53:20.504Z,18.70
2022-08-04T04:56:03.531Z,18.70
2022-08-04T04:58:32.849Z,18.70
2022-08-04T05:01:16.591Z,18.80
2022-08-04T05:03:46.032Z,18.90
2022-08-04T05:06:31.264Z,18.90
2022-08-04T05:09:06.451Z,18.90
2022-08-04T05:11:33.165Z,18.90
2022-08-04T05:14:35.436Z,18.90
2022-08-04T05:16:54.353Z,19.00
2022-08-04T05:19:39.905Z,19.00
2022-08-04T05:22:14.212Z,19.00
2022-08-04T05:24:43.076Z,19.10
2022-08-04T05:27:16.960Z,19.10
2022-08-04T05:29:51.520Z,19.10
2022-08-04T05:32:20.079Z,19.20
2022-08-04T05:34:55.557Z,19.20
2022-08-04T05:37:22.449Z,19.30
2022-08-04T05:39:53.885Z,19.40
2022-08-04T05:42:21.409Z,19.40
2022-08-04T05:44:51.253Z,19.50
2022-08-04T05:47:21.355Z,19.50
2022-08-04T05:50:01.460Z,19.60
2022-08-04T05:52:30.252Z,19.60
2022-08-04T05:54:57.189Z,19.70
2022-08-04T05:57:24.844Z,19.80
2022-08-04T05:59:52.232Z,19.90
2022-08-04T06:02:19.604Z,20.00
2022-08-04T06:04:51.086Z,20.20
2022-08-04T06:07:19.130Z,20.30
2022-08-04T06:09:46.086Z,20.40
2022-08-04T06:12:18.568Z,20.60
2022-08-04T06:14:47.219Z,20.70
2022-08-04T06:18:33.428Z,20.90
2022-08-04T06:20:18.902Z,21.10
2022-08-04T06:22:50.945Z,21.20
2022-08-04T06:25:20.483Z,21.40
2022-08-04T06:27:50.076Z,21.60
2022-08-04T06:30:19.172Z,21.70
2022-08-04T06:33:03.531Z,21.80
2022-08-04T06:35:32.347Z,22.00
2022-08-04T06:38:01.225Z,22.20
2022-08-04T06:40:31.064Z,22.30
2022-08-04T06:42:59.536Z,22.50
2022-08-04T06:45:26.775Z,22.70
2022-08-04T06:47:54.589Z,22.90
2022-08-04T06:51:31.339Z,23.00
2022-08-04T06:53:08.031Z,23.20
2022-08-04T06:55:37.163Z,23.30
2022-08-04T06:58:04.259Z,23.50
2022-08-04T07:00:31.861Z,23.70
2022-08-04T07:02:58.754Z,23.90
2022-08-04T07:05:25.633Z,24.20
2022-08-04T07:07:56.755Z,24.40
2022-08-04T07:10:28.457Z,24.60
2022-08-04T07:12:56.453Z,24.80
2022-08-04T07:15:23.304Z,25.00
2022-08-04T07:17:52.301Z,25.20
2022-08-04T07:20:33.771Z,25.40
2022-08-04T07:23:05.481Z,25.60
2022-08-04T07:25:58.826Z,25.80
2022-08-04T07:28:21.080Z,25.90
2022-08-04T07:30:48.536Z,26.10
2022-08-04T07:33:18.590Z,26.30
2022-08-04T07:36:09.680Z,26.40
2022-08-04T07:38:34.072Z,26.60
2022-08-04T07:41:35.264Z,26.70
2022-08-04T07:43:53.075Z,26.80
2022-08-04T07:46:19.735Z,27.00
2022-08-04T07:48:46.574Z,27.10
2022-08-04T07:51:13.284Z,27.20
2022-08-04T07:53:54.979Z,27.30
2022-08-04T07:56:22.979Z,27.50
2022-08-04T07:58:49.930Z,27.80
2022-08-04T08:01:18.956Z,28.00
2022-08-04T08:03:46.411Z,28.30
2022-08-04T08:06:30.878Z,28.50
2022-08-04T08:09:02.210Z,28.60
2022-08-04T08:12:38.550Z,28.80
2022-08-04T08:14:30.255Z,28.90
2022-08-04T08:16:58.381Z,29.00
2022-08-04T08:19:25.172Z,29.10
2022-08-04T08:21:59.670Z,29.20
2022-08-04T08:24:31.045Z,29.30
2022-08-04T08:26:58.308Z,29.40
2022-08-04T08:29:25.831Z,29.50
2022-08-04T08:31:56.592Z,29.60
2022-08-04T08:34:28.155Z,29.60
2022-08-04T08:36:58.362Z,29.60
2022-08-04T08:39:30.830Z,29.70
2022-08-04T08:42:27.135Z,29.80
2022-08-04T08:45:02.362Z,29.90
2022-08-04T08:48:06.437Z,30.00
2022-08-04T08:50:39.194Z,29.90
2022-08-04T08:53:11.702Z,30.00
2022-08-04T08:55:57.367Z,30.10
2022-08-04T08:58:27.011Z,30.20
2022-08-04T09:00:56.842Z,30.30
2022-08-04T09:03:34.545Z,30.40
2022-08-04T09:06:10.965Z,30.50
2022-08-04T09:08:56.120Z,30.60
2022-08-04T09:11:24.408Z,30.70
2022-08-04T09:13:54.219Z,30.70
2022-08-04T09:16:35.395Z,30.70
2022-08-04T09:19:17.693Z,30.80
2022-08-04T09:22:01.048Z,30.80
2022-08-04T09:24:38.489Z,30.90
2022-08-04T09:27:08.197Z,30.90
2022-08-04T09:29:51.456Z,30.90
2022-08-04T09:32:25.814Z,31.00
2022-08-04T09:35:15.418Z,31.10
2022-08-04T09:37:46.196Z,31.30
2022-08-04T09:40:29.346Z,31.40
2022-08-04T09:43:01.461Z,31.50
2022-08-04T09:45:42.512Z,31.50
2022-08-04T09:48:17.434Z,31.50
2022-08-04T09:50:49.751Z,31.50
2022-08-04T09:53:24.800Z,31.60
2022-08-04T09:56:01.196Z,31.80
2022-08-04T09:58:50.175Z,31.80
2022-08-04T10:01:23.630Z,31.90
2022-08-04T10:03:52.121Z,31.80
2022-08-04T10:06:27.656Z,31.70
2022-08-04T10:08:59.904Z,31.80
2022-08-04T10:11:29.318Z,31.90
2022-08-04T10:14:10.255Z,32.10
2022-08-04T10:16:52.489Z,32.20
2022-08-04T10:19:38.466Z,32.40
2022-08-04T10:22:29.063Z,32.70
2022-08-04T10:26:03.226Z,32.70
2022-08-04T10:27:58.824Z,33.00
2022-08-04T10:30:26.043Z,33.20
2022-08-04T10:33:00.345Z,33.30
2022-08-04T10:35:29.151Z,33.20
2022-08-04T10:38:15.666Z,33.20
2022-08-04T10:40:45.481Z,33.40
2022-08-04T10:43:21.924Z,33.60
2022-08-04T10:45:57.948Z,33.80
2022-08-04T10:48:46.588Z,34.10
2022-08-04T10:51:32.089Z,34.30
2022-08-04T10:54:26.558Z,34.20
2022-08-04T10:56:57.013Z,34.30
2022-08-04T10:59:26.436Z,34.30
2022-08-04T11:02:02.488Z,34.30
2022-08-04T11:04:56.636Z,34.10
2022-08-04T11:07:24.313Z,34.00
2022-08-04T11:09:52.435Z,34.30
2022-08-04T11:12:26.627Z,34.20
2022-08-04T11:14:56.080Z,34.40
2022-08-04T11:17:33.790Z,34.60
2022-08-04T11:20:33.921Z,34.80
2022-08-04T11:23:03.007Z,35.00
2022-08-04T11:25:32.549Z,35.00
2022-08-04T11:28:12.965Z,34.80
2022-08-04T11:30:59.149Z,34.70
2022-08-04T11:33:37.647Z,34.60
2022-08-04T11:36:04.435Z,34.90
2022-08-04T11:38:43.376Z,34.70
2022-08-04T11:41:12.893Z,34.70
2022-08-04T11:44:02.579Z,34.70
2022-08-04T11:46:32.020Z,34.70
2022-08-04T11:49:05.608Z,34.80
2022-08-04T11:51:33.232Z,35.00
2022-08-04T11:54:01.279Z,35.10
2022-08-04T11:56:35.652Z,35.30
2022-08-04T11:59:05.008Z,35.60
2022-08-04T12:01:31.619Z,35.50
2022-08-04T12:04:04.874Z,35.30
2022-08-04T12:06:56.782Z,35.30
2022-08-04T12:09:36.031Z,35.50
2022-08-04T12:12:09.086Z,35.40
2022-08-04T12:14:54.629Z,35.50
2022-08-04T12:17:52.715Z,35.70
2022-08-04T12:20:31.696Z,35.80
2022-08-04T12:23:14.961Z,35.90
2022-08-04T12:25:45.248Z,35.80
2022-08-04T12:28:15.736Z,36.00
2022-08-04T12:31:00.061Z,36.10
2022-08-04T12:34:04.314Z,36.50
2022-08-04T12:36:55.499Z,36.70
2022-08-04T12:39:22.701Z,36.90
2022-08-04T12:42:08.488Z,37.00
2022-08-04T12:44:38.873Z,37.20
2022-08-04T12:47:26.286Z,37.30
2022-08-04T12:50:01.034Z,37.30
2022-08-04T12:55:16.839Z,37.90
2022-08-04T12:57:44.498Z,37.50
2022-08-04T13:00:11.481Z,37.20
2022-08-04T13:02:41.885Z,37.40
2022-08-04T13:05:09.209Z,37.70
2022-08-04T13:07:37.211Z,37.70
2022-08-04T13:10:14.897Z,37.60
2022-08-04T13:12:52.729Z,37.70
2022-08-04T13:15:21.921Z,37.80
2022-08-04T13:17:51.772Z,37.40
2022-08-04T13:20:24.897Z,37.30
2022-08-04T13:22:58.672Z,37.20
2022-08-04T13:26:43.120Z,37.10
2022-08-04T13:28:20.283Z,37.20
2022-08-04T13:30:47.903Z,37.40
2022-08-04T13:33:16.027Z,37.20
2022-08-04T13:35:55.459Z,37.00
2022-08-04T13:38:23.919Z,37.20
2022-08-04T13:40:50.849Z,37.30
2022-08-04T13:44:16.881Z,37.30
2022-08-04T13:46:28.003Z,37.40
2022-08-04T13:51:58.254Z,38.10
2022-08-04T13:54:45.883Z,38.60
2022-08-04T13:57:15.103Z,38.80
2022-08-04T13:59:47.133Z,38.40
2022-08-04T14:02:25.736Z,38.60
2022-08-04T14:04:59.337Z,38.80
2022-08-04T14:07:27.351Z,38.40
2022-08-04T14:10:03.572Z,38.30
2022-08-04T14:12:38.200Z,38.50
2022-08-04T14:16:01.625Z,38.40
2022-08-04T14:18:18.767Z,38.60
2022-08-04T14:20:58.745Z,39.40
2022-08-04T14:23:27.405Z,39.80
2022-08-04T14:26:00.252Z,39.90
2022-08-04T14:28:46.980Z,40.10
2022-08-04T14:31:22.189Z,40.20
2022-08-04T14:34:01.700Z,39.80
2022-08-04T14:36:39.216Z,39.30
2022-08-04T14:40:18.909Z,38.90
2022-08-04T14:42:54.801Z,39.30
2022-08-04T14:45:54.748Z,39.90
2022-08-04T14:48:22.498Z,39.90
2022-08-04T14:50:49.785Z,39.80
2022-08-04T14:53:17.773Z,39.70
2022-08-04T14:55:46.024Z,39.80
2022-08-04T14:58:33.868Z,39.60
2022-08-04T15:01:10.724Z,39.40
2022-08-04T15:03:50.899Z,39.20
2022-08-04T15:06:24.070Z,39.10
2022-08-04T15:08:51.894Z,39.10
2022-08-04T15:11:23.407Z,39.20
2022-08-04T15:13:54.195Z,39.30
2022-08-04T15:16:21.712Z,39.30
2022-08-04T15:18:49.583Z,39.40
2022-08-04T15:21:17.099Z,39.60
2022-08-04T15:23:43.779Z,39.80
2022-08-04T15:26:15.495Z,40.00
2022-08-04T15:28:50.070Z,39.80
2022-08-04T15:32:03.735Z,39.30
2022-08-04T15:34:07.735Z,39.20
2022-08-04T15:36:34.390Z,38.70
2022-08-04T15:39:01.260Z,38.40
2022-08-04T15:41:54.847Z,38.00
2022-08-04T15:44:22.163Z,37.60
2022-08-04T15:46:51.994Z,37.20
2022-08-04T15:49:21.379Z,36.50
2022-08-04T15:51:58.945Z,35.90
2022-08-04T15:54:30.617Z,35.30
2022-08-04T15:57:01.909Z,34.70
2022-08-04T15:59:55.975Z,34.40
2022-08-04T16:02:32.042Z,34.10
2022-08-04T16:05:17.805Z,33.80
2022-08-04T16:07:58.751Z,33.70
2022-08-04T16:10:31.513Z,33.50
2022-08-04T16:12:59.851Z,33.20
2022-08-04T16:15:38.988Z,33.00
2022-08-04T16:18:08.493Z,32.80
2022-08-04T16:20:41.592Z,32.60
2022-08-04T16:23:53.171Z,32.40
2022-08-04T16:26:37.810Z,32.20
2022-08-04T16:29:23.371Z,32.20
2022-08-04T16:32:05.502Z,32.00
2022-08-04T16:34:48.026Z,31.80
2022-08-04T16:37:21.818Z,31.80
2022-08-04T16:39:50.005Z,31.70
2022-08-04T16:42:30.120Z,31.60
2022-08-04T16:45:01.961Z,31.50
2022-08-04T16:47:47.646Z,31.60
2022-08-04T16:50:24.210Z,31.50
2022-08-04T16:53:01.245Z,31.50
2022-08-04T16:55:28.309Z,31.40
2022-08-04T16:57:56.598Z,31.20
2022-08-04T17:00:36.868Z,31.00
2022-08-04T17:03:09.081Z,31.00
2022-08-04T17:05:38.183Z,30.80
2022-08-04T17:08:29.268Z,30.70
2022-08-04T17:10:54.869Z,30.70
2022-08-04T17:14:03.101Z,30.60
2022-08-04T17:16:17.785Z,30.40
2022-08-04T17:18:50.707Z,30.40
2022-08-04T17:21:30.230Z,30.30
2022-08-04T17:24:14.837Z,30.20
2022-08-04T17:26:54.139Z,30.10
2022-08-04T17:29:22.539Z,30.10
2022-08-04T17:31:49.593Z,29.90
2022-08-04T17:34:21.301Z,29.80
2022-08-04T17:36:49.152Z,29.70
2022-08-04T17:39:21.327Z,29.70
2022-08-04T17:41:51.581Z,29.70
2022-08-04T17:44:18.316Z,29.60
2022-08-04T17:46:48.235Z,29.60
2022-08-04T17:49:18.570Z,29.50
2022-08-04T17:52:05.945Z,29.40
2022-08-04T17:54:37.055Z,29.30
2022-08-04T17:57:21.075Z,29.20
2022-08-04T17:59:57.561Z,29.10
2022-08-04T18:02:33.048Z,29.10
2022-08-04T18:05:07.355Z,28.90
2022-08-04T18:08:40.412Z,28.90
2022-08-04T18:10:52.651Z,28.80
2022-08-04T18:13:26.921Z,28.70
2022-08-04T18:16:22.838Z,28.60
2022-08-04T18:19:09.088Z,28.50
2022-08-04T18:21:46.547Z,28.50
2022-08-04T18:24:33.920Z,28.40
2022-08-04T18:27:06.330Z,28.40
2022-08-04T18:29:33.870Z,28.30
2022-08-04T18:32:05.827Z,28.20
2022-08-04T18:34:36.501Z,28.20
2022-08-04T18:38:03.278Z,28.10
2022-08-04T18:40:09.601Z,28.00
2022-08-04T18:42:37.291Z,28.00
2022-08-04T18:45:05.584Z,27.90
2022-08-04T18:47:33.028Z,27.80
2022-08-04T18:51:01.720Z,27.80
2022-08-04T18:53:06.276Z,27.70
2022-08-04T18:55:55.475Z,27.50
2022-08-04T18:58:27.439Z,27.30
2022-08-04T19:01:00.874Z,27.10
2022-08-04T19:03:33.223Z,26.90
2022-08-04T19:06:01.317Z,26.70
2022-08-04T19:08:33.371Z,26.50
2022-08-04T19:11:02.275Z,26.50
2022-08-04T19:13:57.712Z,26.40
2022-08-04T19:16:29.361Z,26.30
2022-08-04T19:18:56.715Z,26.20
2022-08-04T19:22:01.624Z,26.00
2022-08-04T19:24:32.821Z,25.90
2022-08-04T19:26:59.086Z,25.90
2022-08-04T19:29:25.995Z,25.70
2022-08-04T19:32:05.212Z,25.70
2022-08-04T19:34:42.606Z,25.60
2022-08-04T19:37:19.891Z,25.50
2022-08-04T19:40:00.773Z,25.40
2022-08-04T19:42:29.628Z,25.30
2022-08-04T19:44:56.389Z,25.20
2022-08-04T19:48:16.011Z,25.20
2022-08-04T19:50:10.839Z,25.20
2022-08-04T19:52:38.599Z,25.00
2022-08-04T19:55:10.799Z,25.00
2022-08-04T19:57:49.390Z,24.80
2022-08-04T20:00:17.848Z,24.80
2022-08-04T20:03:00.388Z,24.70
2022-08-04T20:05:52.664Z,24.70
2022-08-04T20:08:13.824Z,24.60
2022-08-04T20:10:51.469Z,24.60
2022-08-04T20:13:19.378Z,24.50
2022-08-04T20:15:55.340Z,24.40
2022-08-04T20:18:36.738Z,24.40
2022-08-04T20:21:24.048Z,24.50
2022-08-04T20:23:58.613Z,24.40
2022-08-04T20:26:45.894Z,24.30
2022-08-04T20:29:40.352Z,24.20
2022-08-04T20:32:08.811Z,24.20
2022-08-04T20:34:36.593Z,24.20
2022-08-04T20:37:03.904Z,24.20
2022-08-04T20:39:31.077Z,24.40
2022-08-04T20:42:01.496Z,24.50
2022-08-04T20:44:34.634Z,24.50
2022-08-04T20:47:01.587Z,24.50
2022-08-04T20:49:35.142Z,24.40
2022-08-04T20:52:20.274Z,24.50
2022-08-04T20:54:48.425Z,24.50
2022-08-04T20:57:16.881Z,24.60
2022-08-04T20:59:43.913Z,24.60
2022-08-04T21:02:26.787Z,24.60
2022-08-04T21:04:53.683Z,24.60
2022-08-04T21:07:22.254Z,24.60
2022-08-04T21:09:50.578Z,24.60
2022-08-04T21:12:26.770Z,24.60
2022-08-04T21:14:53.758Z,24.60
2022-08-04T21:17:21.086Z,24.60
2022-08-04T21:20:12.979Z,24.50
2022-08-04T21:22:40.540Z,24.60
2022-08-04T21:25:07.941Z,24.60
2022-08-04T21:27:43.433Z,24.60
2022-08-04T21:30:26.131Z,24.60
2022-08-04T21:32:55.262Z,24.70
2022-08-04T21:35:36.746Z,24.60
2022-08-04T21:38:16.530Z,24.60
2022-08-04T21:40:54.241Z,24.60
2022-08-04T21:43:23.483Z,24.50
2022-08-04T21:46:04.027Z,24.50
2022-08-04T21:48:31.597Z,24.40
2022-08-04T21:51:12.247Z,24.30
2022-08-04T21:54:02.632Z,24.40
2022-08-04T21:56:29.330Z,24.30
2022-08-04T21:58:58.199Z,24.30
2022-08-04T22:01:52.055Z,24.30
2022-08-04T22:04:15.312Z,24.20
2022-08-04T22:06:42.052Z,24.10
2022-08-04T22:09:16.627Z,24.10
2022-08-04T22:11:50.270Z,24.10
2022-08-04T22:14:17.983Z,23.90
2022-08-04T22:16:56.399Z,23.80
2022-08-04T22:19:40.993Z,23.70
2022-08-04T22:22:12.656Z,23.60
2022-08-04T22:25:00.585Z,23.60
2022-08-04T22:27:47.749Z,23.50
2022-08-04T22:30:22.029Z,23.50
2022-08-04T22:32:48.693Z,23.40
2022-08-04T22:35:35.546Z,23.40
2022-08-04T22:38:06.604Z,23.40
2022-08-04T22:40:55.318Z,23.40
2022-08-04T22:43:33.234Z,23.30
2022-08-04T22:46:02.057Z,23.30
2022-08-04T22:48:31.897Z,23.30
2022-08-04T22:51:00.815Z,23.30
2022-08-04T22:53:27.688Z,23.30
2022-08-04T22:56:07.248Z,23.20
2022-08-04T22:58:45.107Z,23.10
2022-08-04T23:01:13.238Z,23.10
2022-08-04T23:03:41.857Z,23.00
2022-08-04T23:06:17.885Z,23.00
2022-08-04T23:08:51.128Z,22.90
2022-08-04T23:11:17.868Z,22.80
2022-08-04T23:13:45.306Z,22.80
2022-08-04T23:16:12.275Z,22.80
2022-08-04T23:18:40.073Z,22.70
2022-08-04T23:21:10.002Z,22.70
2022-08-04T23:23:36.975Z,22.70
2022-08-04T23:26:11.519Z,22.60
2022-08-04T23:28:38.268Z,22.70
2022-08-04T23:31:05.248Z,22.60
2022-08-04T23:33:49.305Z,22.50
2022-08-04T23:36:18.874Z,22.50
2022-08-04T23:38:58.339Z,22.50
2022-08-04T23:41:24.999Z,22.50
2022-08-04T23:44:11.647Z,22.50
2022-08-04T23:46:38.322Z,22.50
2022-08-04T23:49:06.107Z,22.50
2022-08-04T23:51:32.719Z,22.50
2022-08-04T23:54:03.072Z,22.50
2022-08-04T23:56:31.918Z,22.50
2022-08-04T23:59:00.174Z,22.50
